Jacksonville, Illinois
Current Conditions -  °F | °C
As of 9:15 AM on Wednesday 22 Oct 2014 (Local Time) from KIJX Reporting Station
Clear Clear  
Wind Chill: 43°   Ceiling: Unl
Heat Index: 46°   Visibility: 10mi
Dew Point: 41°   Wind: 6mph
Humidity: 83%   Direction: 110°ESE
Pressure: 30.35"   Gusts: NA
Location:  39.75°N, 90.23°W
Report Text: KIJX 221415Z AUTO 11005KT 10SM CLR 08/05 A3035 RMK AO2 T00790052
Loading
Personal Weather Stations






























Interactive Weather Map
Tropical Storm Tracking
New forecast layout! Learn more

10-Day Weather Forecast

Advertisements
Track Severe Weather on mobile